createdAt,value
2022-09-12T00:00:06.940Z,85.80
2022-09-12T00:01:07.212Z,85.83
2022-09-12T00:02:07.326Z,85.85
2022-09-12T00:03:07.336Z,85.93
2022-09-12T00:04:07.422Z,85.93
2022-09-12T00:05:07.573Z,85.95
2022-09-12T00:06:07.762Z,85.98
2022-09-12T00:07:07.830Z,86.00
2022-09-12T00:08:07.952Z,86.02
2022-09-12T00:09:08.077Z,86.02
2022-09-12T00:10:08.161Z,85.98
2022-09-12T00:11:08.520Z,85.97
2022-09-12T00:12:08.421Z,85.96
2022-09-12T00:13:08.510Z,85.96
2022-09-12T00:14:08.623Z,86.03
2022-09-12T00:15:08.723Z,86.04
2022-09-12T00:16:08.917Z,86.03
2022-09-12T00:17:09.049Z,86.05
2022-09-12T00:18:09.101Z,86.09
2022-09-12T00:19:09.208Z,86.15
2022-09-12T00:20:09.290Z,86.22
2022-09-12T00:21:09.586Z,86.26
2022-09-12T00:22:09.611Z,86.28
2022-09-12T00:23:09.711Z,86.28
2022-09-12T00:24:09.898Z,86.27
2022-09-12T00:25:09.938Z,86.23
2022-09-12T00:26:10.077Z,86.20
2022-09-12T00:27:10.236Z,86.22
2022-09-12T00:28:10.377Z,86.30
2022-09-12T00:29:10.495Z,86.35
2022-09-12T00:30:10.575Z,86.41
2022-09-12T00:31:10.705Z,86.42
2022-09-12T00:32:10.917Z,86.46
2022-09-12T00:33:10.946Z,86.44
2022-09-12T00:34:11.095Z,86.44
2022-09-12T00:35:11.235Z,86.44
2022-09-12T00:36:11.367Z,86.44
2022-09-12T00:37:11.564Z,86.42
2022-09-12T00:38:11.633Z,86.43
2022-09-12T00:39:11.718Z,86.46
2022-09-12T00:40:11.909Z,86.40
2022-09-12T00:41:11.983Z,86.43
2022-09-12T00:42:12.806Z,86.42
2022-09-12T00:43:12.332Z,86.41
2022-09-12T00:44:12.373Z,86.30
2022-09-12T00:45:12.454Z,86.26
2022-09-12T00:46:12.591Z,86.25
2022-09-12T00:47:12.744Z,86.34
2022-09-12T00:48:13.003Z,86.43
2022-09-12T00:49:13.000Z,86.60
2022-09-12T00:50:13.151Z,86.74
2022-09-12T00:51:13.231Z,86.82
2022-09-12T00:52:13.390Z,86.94
2022-09-12T00:53:13.612Z,86.99
2022-09-12T00:54:13.645Z,87.05
2022-09-12T00:55:13.813Z,87.07
2022-09-12T00:56:13.851Z,87.15
2022-09-12T00:57:13.998Z,87.25
2022-09-12T00:58:14.180Z,87.31
2022-09-12T00:59:14.220Z,87.34
2022-09-12T01:00:14.369Z,87.29
2022-09-12T01:01:14.590Z,87.23
2022-09-12T01:02:14.721Z,87.15
2022-09-12T01:03:14.841Z,87.06
2022-09-12T01:04:14.869Z,87.14
2022-09-12T01:05:14.998Z,87.02
2022-09-12T01:06:15.149Z,86.94
2022-09-12T01:07:15.470Z,86.80
2022-09-12T01:08:15.428Z,86.96
2022-09-12T01:09:15.589Z,87.17
2022-09-12T01:10:15.680Z,87.29
2022-09-12T01:11:15.807Z,87.44
2022-09-12T01:12:16.067Z,87.50
2022-09-12T01:13:16.226Z,87.50
2022-09-12T01:14:16.219Z,87.52
2022-09-12T01:15:16.355Z,87.54
2022-09-12T01:16:16.518Z,87.59
2022-09-12T01:17:16.707Z,87.64
2022-09-12T01:18:16.737Z,87.71
2022-09-12T01:19:16.826Z,87.78
2022-09-12T01:20:16.986Z,87.84
2022-09-12T01:21:17.068Z,87.87
2022-09-12T01:22:17.495Z,87.89
2022-09-12T01:23:17.325Z,87.91
2022-09-12T01:24:18.115Z,87.92
2022-09-12T01:25:17.506Z,87.95
2022-09-12T01:26:17.674Z,87.95
2022-09-12T01:27:17.777Z,87.93
2022-09-12T01:28:17.944Z,87.94
2022-09-12T01:29:17.982Z,87.96
2022-09-12T01:30:18.125Z,87.97
2022-09-12T01:31:18.253Z,88.01
2022-09-12T01:32:18.455Z,88.01
2022-09-12T01:33:18.593Z,87.96
2022-09-12T01:34:18.675Z,87.93
2022-09-12T01:35:18.772Z,87.92
2022-09-12T01:36:18.852Z,87.92
2022-09-12T01:37:19.032Z,87.88
2022-09-12T01:38:19.251Z,87.79
2022-09-12T01:39:19.264Z,87.71
2022-09-12T01:40:19.373Z,87.64
2022-09-12T01:41:19.451Z,87.53
2022-09-12T01:42:19.733Z,87.48
2022-09-12T01:43:19.711Z,87.43
2022-09-12T01:44:19.890Z,87.41
2022-09-12T01:45:19.980Z,87.43
2022-09-12T01:46:20.140Z,87.47
2022-09-12T01:47:20.381Z,87.50
2022-09-12T01:48:20.363Z,87.54
2022-09-12T01:49:20.669Z,87.62
2022-09-12T01:50:20.660Z,87.70
2022-09-12T01:51:20.768Z,87.79
2022-09-12T01:52:20.957Z,87.85
2022-09-12T01:53:21.208Z,87.91
2022-09-12T01:54:21.149Z,87.92
2022-09-12T01:55:21.317Z,87.92
2022-09-12T01:56:21.428Z,87.97
2022-09-12T01:57:21.538Z,87.96
2022-09-12T01:58:21.800Z,87.94
2022-09-12T01:59:21.810Z,87.89
2022-09-12T02:00:21.907Z,87.90
2022-09-12T02:01:22.106Z,87.86
2022-09-12T02:02:22.231Z,87.87
2022-09-12T02:03:22.697Z,87.86
2022-09-12T02:04:22.469Z,87.87
2022-09-12T02:05:22.605Z,87.88
2022-09-12T02:06:22.727Z,87.96
2022-09-12T02:07:22.877Z,87.96
2022-09-12T02:08:23.115Z,87.98
2022-09-12T02:09:23.168Z,87.96
2022-09-12T02:10:23.256Z,87.93
2022-09-12T02:11:23.394Z,87.88
2022-09-12T02:12:23.564Z,87.83
2022-09-12T02:13:23.764Z,87.84
2022-09-12T02:14:23.824Z,87.85
2022-09-12T02:15:23.927Z,87.85
2022-09-12T02:16:24.112Z,87.86
2022-09-12T02:17:24.205Z,87.88
2022-09-12T02:18:24.441Z,87.87
2022-09-12T02:19:24.462Z,87.90
2022-09-12T02:20:46.520Z,87.92
2022-09-12T02:21:25.702Z,88.04
2022-09-12T02:22:24.843Z,88.14
2022-09-12T02:23:25.093Z,88.16
2022-09-12T02:24:25.115Z,88.10
2022-09-12T02:25:25.221Z,88.03
2022-09-12T02:26:25.322Z,87.98
2022-09-12T02:27:25.471Z,87.91
2022-09-12T02:28:25.763Z,87.89
2022-09-12T02:29:25.731Z,87.85
2022-09-12T02:30:25.895Z,87.85
2022-09-12T02:31:25.992Z,87.82
2022-09-12T02:32:26.122Z,87.75
2022-09-12T02:33:26.351Z,87.78
2022-09-12T02:34:26.379Z,87.81
2022-09-12T02:35:26.510Z,87.81
2022-09-12T02:36:26.668Z,87.81
2022-09-12T02:37:26.787Z,87.75
2022-09-12T02:38:26.961Z,87.76
2022-09-12T02:39:27.023Z,87.75
2022-09-12T02:40:27.241Z,87.72
2022-09-12T02:41:27.228Z,87.72
2022-09-12T02:42:27.430Z,87.71
2022-09-12T02:43:27.570Z,87.65
2022-09-12T02:44:27.667Z,87.66
2022-09-12T02:45:27.885Z,87.67
2022-09-12T02:46:27.966Z,87.71
2022-09-12T02:47:28.118Z,87.73
2022-09-12T02:48:28.268Z,87.70
2022-09-12T02:49:28.918Z,87.68
2022-09-12T02:50:28.496Z,87.67
2022-09-12T02:51:28.626Z,87.67
2022-09-12T02:52:28.777Z,87.65
2022-09-12T02:53:28.984Z,87.62
2022-09-12T02:54:29.126Z,87.58
2022-09-12T02:55:29.203Z,87.51
2022-09-12T02:56:29.296Z,87.51
2022-09-12T02:57:29.425Z,87.47
2022-09-12T02:58:29.676Z,87.45
2022-09-12T02:59:29.655Z,87.40
2022-09-12T03:00:29.785Z,87.38
2022-09-12T03:01:29.942Z,87.46
2022-09-12T03:02:30.239Z,87.56
2022-09-12T03:03:30.254Z,87.54
2022-09-12T03:04:30.354Z,87.46
2022-09-12T03:05:30.703Z,87.39
2022-09-12T03:06:30.583Z,87.32
2022-09-12T03:07:30.756Z,87.44
2022-09-12T03:08:30.834Z,87.75
2022-09-12T03:09:30.964Z,87.90
2022-09-12T03:10:31.131Z,87.95
2022-09-12T03:11:31.311Z,87.96
2022-09-12T03:12:31.364Z,87.99
2022-09-12T03:13:31.502Z,87.96
2022-09-12T03:14:31.654Z,87.96
2022-09-12T03:15:31.931Z,87.92
2022-09-12T03:16:31.955Z,87.93
2022-09-12T03:17:32.074Z,87.94
2022-09-12T03:18:32.227Z,87.85
2022-09-12T03:19:32.322Z,87.76
2022-09-12T03:20:32.560Z,87.73
2022-09-12T03:21:32.579Z,87.71
2022-09-12T03:22:32.782Z,87.62
2022-09-12T03:23:32.838Z,87.61
2022-09-12T03:24:32.960Z,87.61
2022-09-12T03:25:33.161Z,87.66
2022-09-12T03:26:33.244Z,87.68
2022-09-12T03:27:33.389Z,87.70
2022-09-12T03:28:33.498Z,87.70
2022-09-12T03:29:33.609Z,87.66
2022-09-12T03:30:33.836Z,87.63
2022-09-12T03:31:33.889Z,87.64
2022-09-12T03:32:34.037Z,87.64
2022-09-12T03:33:34.117Z,87.63
2022-09-12T03:34:34.246Z,87.62
2022-09-12T03:35:34.405Z,87.60
2022-09-12T03:36:34.505Z,87.62
2022-09-12T03:37:34.646Z,87.53
2022-09-12T03:38:34.874Z,87.49
2022-09-12T03:39:34.898Z,87.44
2022-09-12T03:40:35.021Z,87.44
2022-09-12T03:41:35.146Z,87.53
2022-09-12T03:42:35.295Z,87.52
2022-09-12T03:43:35.757Z,87.53
2022-09-12T03:44:35.526Z,87.68
2022-09-12T03:45:35.674Z,87.70
2022-09-12T03:46:35.809Z,87.72
2022-09-12T03:47:35.973Z,87.83
2022-09-12T03:48:36.139Z,87.80
2022-09-12T03:49:36.272Z,87.78
2022-09-12T03:50:36.301Z,87.66
2022-09-12T03:51:36.431Z,87.71
2022-09-12T03:52:36.583Z,87.64
2022-09-12T03:53:36.763Z,87.74
2022-09-12T03:54:37.015Z,87.75
2022-09-12T03:55:36.954Z,87.67
2022-09-12T03:56:37.084Z,87.64
2022-09-12T03:57:37.234Z,87.61
2022-09-12T03:58:37.362Z,87.63
2022-09-12T03:59:37.611Z,87.77
2022-09-12T04:00:37.642Z,87.72
2022-09-12T04:01:37.802Z,87.76
2022-09-12T04:02:37.919Z,87.77
2022-09-12T04:03:38.064Z,87.82
2022-09-12T04:04:38.351Z,87.96
2022-09-12T04:05:38.336Z,88.09
2022-09-12T04:06:38.473Z,88.27
2022-09-12T04:07:38.601Z,88.30
2022-09-12T04:08:38.761Z,88.35
2022-09-12T04:09:39.102Z,88.42
2022-09-12T04:10:39.020Z,88.44
2022-09-12T04:11:39.170Z,88.49
2022-09-12T04:12:39.320Z,88.57
2022-09-12T04:13:39.416Z,88.62
2022-09-12T04:14:39.589Z,88.62
2022-09-12T04:15:39.761Z,88.61
2022-09-12T04:16:39.822Z,88.59
2022-09-12T04:17:39.938Z,88.64
2022-09-12T04:18:40.078Z,88.60
2022-09-12T04:19:40.258Z,88.56
2022-09-12T04:20:40.427Z,88.60
2022-09-12T04:21:40.456Z,88.48
2022-09-12T04:22:40.659Z,88.45
2022-09-12T04:23:40.727Z,88.36
2022-09-12T04:24:40.869Z,88.34
2022-09-12T04:25:41.131Z,88.40
2022-09-12T04:26:41.186Z,88.35
2022-09-12T04:27:41.235Z,88.30
2022-09-12T04:28:41.344Z,88.30
2022-09-12T04:29:41.490Z,88.26
2022-09-12T04:30:41.774Z,88.28
2022-09-12T04:31:41.994Z,88.32
2022-09-12T04:32:41.897Z,88.34
2022-09-12T04:33:41.966Z,88.44
2022-09-12T04:34:42.114Z,88.39
2022-09-12T04:35:42.583Z,88.35
2022-09-12T04:36:42.404Z,88.44
2022-09-12T04:37:42.533Z,88.46
2022-09-12T04:38:42.698Z,88.51
2022-09-12T04:39:43.078Z,88.57
2022-09-12T04:40:42.923Z,88.64
2022-09-12T04:41:43.165Z,88.64
2022-09-12T04:42:43.265Z,88.64
2022-09-12T04:43:43.304Z,88.64
2022-09-12T04:44:43.444Z,88.63
2022-09-12T04:45:43.603Z,88.67
2022-09-12T04:46:43.840Z,88.70
2022-09-12T04:47:43.871Z,88.77
2022-09-12T04:48:44.077Z,88.83
2022-09-12T04:49:44.142Z,88.82
2022-09-12T04:50:44.271Z,88.83
2022-09-12T04:51:44.672Z,88.84
2022-09-12T04:52:44.540Z,88.82
2022-09-12T04:53:44.691Z,88.78
2022-09-12T04:54:44.822Z,88.80
2022-09-12T04:55:44.944Z,88.80
2022-09-12T04:56:45.180Z,88.76
2022-09-12T04:57:45.320Z,88.72
2022-09-12T04:58:45.356Z,88.77
2022-09-12T04:59:45.499Z,88.85
2022-09-12T05:00:45.649Z,88.92
2022-09-12T05:01:45.909Z,89.00
2022-09-12T05:02:45.989Z,89.05
2022-09-12T05:03:46.038Z,89.10
2022-09-12T05:04:46.190Z,89.16
2022-09-12T05:05:46.328Z,89.19
2022-09-12T05:06:46.490Z,89.20
2022-09-12T05:07:46.611Z,89.25
2022-09-12T05:08:46.796Z,89.24
2022-09-12T05:09:46.835Z,89.20
2022-09-12T05:10:46.995Z,89.19
2022-09-12T05:12:04.638Z,89.19
2022-09-12T05:12:48.317Z,89.17
2022-09-12T05:13:47.400Z,89.17
2022-09-12T05:14:47.486Z,89.14
2022-09-12T05:15:47.616Z,89.06
2022-09-12T05:16:49.647Z,89.02
2022-09-12T05:17:48.018Z,88.99
2022-09-12T05:18:48.073Z,88.92
2022-09-12T05:19:48.135Z,88.89
2022-09-12T05:20:48.272Z,88.85
2022-09-12T05:21:48.429Z,88.81
2022-09-12T05:22:48.744Z,88.76
2022-09-12T05:23:48.673Z,88.72
2022-09-12T05:24:50.750Z,88.66
2022-09-12T05:25:48.953Z,88.64
2022-09-12T05:26:49.051Z,88.59
2022-09-12T05:27:50.586Z,88.57
2022-09-12T05:28:49.325Z,88.56
2022-09-12T05:29:49.442Z,88.59
2022-09-12T05:30:49.595Z,88.61
2022-09-12T05:31:49.703Z,88.59
2022-09-12T05:32:49.862Z,88.62
2022-09-12T05:33:49.963Z,88.58
2022-09-12T05:34:50.090Z,88.55
2022-09-12T05:35:50.212Z,88.54
2022-09-12T05:36:50.352Z,88.48
2022-09-12T05:37:50.589Z,88.43
2022-09-12T05:38:50.610Z,88.38
2022-09-12T05:39:50.755Z,88.34
2022-09-12T05:40:50.872Z,88.34
2022-09-12T05:41:51.245Z,88.31
2022-09-12T05:42:51.273Z,88.24
2022-09-12T05:43:51.246Z,88.20
2022-09-12T05:44:51.378Z,88.12
2022-09-12T05:45:51.544Z,88.13
2022-09-12T05:46:51.649Z,88.19
2022-09-12T05:47:51.938Z,88.24
2022-09-12T05:48:55.837Z,88.26
2022-09-12T05:49:52.043Z,88.34
2022-09-12T05:50:52.187Z,88.35
2022-09-12T05:51:52.316Z,88.34
2022-09-12T05:52:52.677Z,88.33
2022-09-12T05:53:52.556Z,88.33
2022-09-12T05:54:52.679Z,88.30
2022-09-12T05:55:52.808Z,88.23
2022-09-12T05:56:52.959Z,88.17
2022-09-12T05:57:53.197Z,88.04
2022-09-12T05:58:53.367Z,87.93
2022-09-12T05:59:53.356Z,87.81
2022-09-12T06:00:53.486Z,87.71
2022-09-12T06:01:53.616Z,87.57
2022-09-12T06:02:53.785Z,87.39
2022-09-12T06:03:54.105Z,87.41
2022-09-12T06:04:53.984Z,87.31
2022-09-12T06:05:54.124Z,86.96
2022-09-12T06:06:54.262Z,86.86
2022-09-12T06:07:54.414Z,86.87
2022-09-12T06:08:54.621Z,86.67
2022-09-12T06:09:54.614Z,86.62
2022-09-12T06:10:54.753Z,86.51
2022-09-12T06:11:54.873Z,86.41
2022-09-12T06:12:55.032Z,86.08
2022-09-12T06:13:55.215Z,86.02
2022-09-12T06:14:55.383Z,85.90
2022-09-12T06:15:55.417Z,85.95
2022-09-12T06:16:55.589Z,85.57
2022-09-12T06:17:55.651Z,85.44
2022-09-12T06:18:55.961Z,84.98
2022-09-12T06:19:55.892Z,84.93
2022-09-12T06:20:56.019Z,84.86
2022-09-12T06:21:56.144Z,84.76
2022-09-12T06:22:57.851Z,84.59
2022-09-12T06:23:56.601Z,84.47
2022-09-12T06:24:58.043Z,84.35
2022-09-12T06:25:56.673Z,84.19
2022-09-12T06:26:56.788Z,84.14
2022-09-12T06:27:56.929Z,84.05
2022-09-12T06:28:57.069Z,83.84
2022-09-12T06:29:57.249Z,83.81
2022-09-12T06:30:57.369Z,83.77
2022-09-12T06:31:57.451Z,83.63
2022-09-12T06:32:57.570Z,83.55
2022-09-12T06:33:57.850Z,83.48
2022-09-12T06:34:57.847Z,83.18
2022-09-12T06:35:57.957Z,83.18
2022-09-12T06:36:58.187Z,83.26
2022-09-12T06:37:58.238Z,83.16
2022-09-12T06:38:58.349Z,83.23
2022-09-12T06:39:58.707Z,82.86
2022-09-12T06:40:58.618Z,82.90
2022-09-12T06:41:58.757Z,83.04
2022-09-12T06:42:58.922Z,83.23
2022-09-12T06:43:59.025Z,83.33
2022-09-12T06:44:59.217Z,83.40
2022-09-12T06:45:59.392Z,83.49
2022-09-12T06:46:59.426Z,83.51
2022-09-12T06:47:59.564Z,83.67
2022-09-12T06:48:59.707Z,83.69
2022-09-12T06:49:59.896Z,83.51
2022-09-12T06:50:59.959Z,83.41
2022-09-12T06:52:00.156Z,82.89
2022-09-12T06:53:00.210Z,82.95
2022-09-12T06:54:00.353Z,82.86
2022-09-12T06:55:00.515Z,82.28
2022-09-12T06:56:00.614Z,80.71
2022-09-12T06:57:00.828Z,80.34
2022-09-12T06:58:00.894Z,80.14
2022-09-12T06:59:00.984Z,79.96
2022-09-12T07:00:01.137Z,79.81
2022-09-12T07:01:01.311Z,80.28
2022-09-12T07:02:01.540Z,79.32
2022-09-12T07:03:01.528Z,78.17
2022-09-12T07:04:01.653Z,77.44
2022-09-12T07:05:01.784Z,76.83
2022-09-12T07:06:01.932Z,77.59
2022-09-12T07:07:02.207Z,77.43
2022-09-12T07:08:02.213Z,78.02
2022-09-12T07:09:02.306Z,77.98
2022-09-12T07:10:02.454Z,77.49
2022-09-12T07:11:02.573Z,75.86
2022-09-12T07:12:02.782Z,74.79
2022-09-12T07:13:02.810Z,76.27
2022-09-12T07:14:02.953Z,76.10
2022-09-12T07:15:03.029Z,76.47
2022-09-12T07:16:03.192Z,76.52
2022-09-12T07:17:03.389Z,75.97
2022-09-12T07:18:03.410Z,74.23
2022-09-12T07:19:03.531Z,73.34
2022-09-12T07:20:03.652Z,74.57
2022-09-12T07:21:03.801Z,74.41
2022-09-12T07:22:04.231Z,74.63
2022-09-12T07:23:05.902Z,72.69
2022-09-12T07:24:04.170Z,73.51
2022-09-12T07:25:04.302Z,73.70
2022-09-12T07:26:04.452Z,75.25
2022-09-12T07:27:04.653Z,73.30
2022-09-12T07:28:04.693Z,73.80
2022-09-12T07:29:32.288Z,74.45
2022-09-12T07:30:05.951Z,74.39
2022-09-12T07:31:05.099Z,75.50
2022-09-12T07:32:05.288Z,74.68
2022-09-12T07:33:05.379Z,73.29
2022-09-12T07:34:05.471Z,72.58
2022-09-12T07:35:05.600Z,72.71
2022-09-12T07:36:05.731Z,72.96
2022-09-12T07:37:05.975Z,71.96
2022-09-12T07:38:06.067Z,72.09
2022-09-12T07:39:06.100Z,72.26
2022-09-12T07:40:06.301Z,72.32
2022-09-12T07:41:06.349Z,73.01
2022-09-12T07:42:06.604Z,74.23
2022-09-12T07:43:06.629Z,73.97
2022-09-12T07:44:06.761Z,73.78
2022-09-12T07:45:06.858Z,74.29
2022-09-12T07:46:07.050Z,74.63
2022-09-12T07:47:07.183Z,75.54
2022-09-12T07:48:07.434Z,76.03
2022-09-12T07:49:08.411Z,75.24
2022-09-12T07:50:07.533Z,75.61
2022-09-12T07:51:07.677Z,75.45
2022-09-12T07:52:07.968Z,75.77
2022-09-12T07:53:08.097Z,76.06
2022-09-12T07:54:08.077Z,75.97
2022-09-12T07:55:08.218Z,76.54
2022-09-12T07:56:08.348Z,76.05
2022-09-12T07:57:08.490Z,76.02
2022-09-12T07:58:08.757Z,76.19
2022-09-12T07:59:08.745Z,76.07
2022-09-12T08:00:08.888Z,75.76
2022-09-12T08:01:09.063Z,75.86
2022-09-12T08:02:10.756Z,75.39
2022-09-12T08:03:09.624Z,75.36
2022-09-12T08:04:09.386Z,74.41
2022-09-12T08:05:09.520Z,73.74
2022-09-12T08:06:09.659Z,73.32
2022-09-12T08:07:09.784Z,73.86
2022-09-12T08:08:09.946Z,70.53
2022-09-12T08:09:10.123Z,69.38
2022-09-12T08:10:10.186Z,69.91
2022-09-12T08:11:10.358Z,71.44
2022-09-12T08:12:10.413Z,70.09
2022-09-12T08:13:10.989Z,68.98
2022-09-12T08:14:10.665Z,68.63
2022-09-12T08:15:10.765Z,69.82
2022-09-12T08:16:10.937Z,69.02
2022-09-12T08:17:11.035Z,69.57
2022-09-12T08:18:11.354Z,66.86
2022-09-12T08:19:11.395Z,65.71
2022-09-12T08:20:11.393Z,62.68
2022-09-12T08:21:11.474Z,65.53
2022-09-12T08:22:11.625Z,65.63
2022-09-12T08:23:11.855Z,65.45
2022-09-12T08:24:11.896Z,61.47
2022-09-12T08:25:11.984Z,61.18
2022-09-12T08:26:12.116Z,60.87
2022-09-12T08:27:12.259Z,59.39
2022-09-12T08:28:12.623Z,58.07
2022-09-12T08:29:12.504Z,59.44
2022-09-12T08:30:12.594Z,59.21
2022-09-12T08:31:12.774Z,59.72
2022-09-12T08:32:12.824Z,57.31
2022-09-12T08:33:13.124Z,58.51
2022-09-12T08:34:13.115Z,61.18
2022-09-12T08:35:13.194Z,58.36
2022-09-12T08:36:13.347Z,60.67
2022-09-12T08:37:13.432Z,60.57
2022-09-12T08:38:13.824Z,60.08
2022-09-12T08:39:13.704Z,61.32
2022-09-12T08:40:13.865Z,59.85
2022-09-12T08:41:14.006Z,58.91
2022-09-12T08:42:14.088Z,60.29
2022-09-12T08:43:14.365Z,61.73
2022-09-12T08:44:14.503Z,60.48
2022-09-12T08:45:14.474Z,62.89
2022-09-12T08:46:14.662Z,62.49
2022-09-12T08:47:14.763Z,60.25
2022-09-12T08:48:15.023Z,60.98
2022-09-12T08:49:15.134Z,60.17
2022-09-12T08:50:15.125Z,56.80
2022-09-12T08:51:15.222Z,57.85
2022-09-12T08:52:15.322Z,58.60
2022-09-12T08:53:15.522Z,59.74
2022-09-12T08:54:15.693Z,56.05
2022-09-12T08:55:15.623Z,56.62
2022-09-12T08:56:15.765Z,59.15
2022-09-12T08:57:15.912Z,58.37
2022-09-12T08:58:16.224Z,56.70
2022-09-12T08:59:16.352Z,55.55
2022-09-12T09:00:16.332Z,58.27
2022-09-12T09:01:16.534Z,56.86
2022-09-12T09:02:16.644Z,59.19
2022-09-12T09:03:16.771Z,55.79
2022-09-12T09:04:16.923Z,57.08
2022-09-12T09:05:16.964Z,56.99
2022-09-12T09:06:17.064Z,56.38
2022-09-12T09:07:17.161Z,59.62
2022-09-12T09:08:17.322Z,58.33
2022-09-12T09:09:17.591Z,56.74
2022-09-12T09:10:17.531Z,56.38
2022-09-12T09:11:17.661Z,58.15
2022-09-12T09:12:17.804Z,57.69
2022-09-12T09:13:17.923Z,57.61
2022-09-12T09:14:18.060Z,58.23
2022-09-12T09:15:18.212Z,54.24
2022-09-12T09:16:18.302Z,58.45
2022-09-12T09:17:18.364Z,56.48
2022-09-12T09:18:18.501Z,57.65
2022-09-12T09:19:18.663Z,54.43
2022-09-12T09:20:18.961Z,54.26
2022-09-12T09:21:18.841Z,52.81
2022-09-12T09:22:18.990Z,53.69
2022-09-12T09:23:19.181Z,54.60
2022-09-12T09:24:19.241Z,53.77
2022-09-12T09:25:22.739Z,54.63
2022-09-12T09:26:19.445Z,53.56
2022-09-12T09:27:39.245Z,51.77
2022-09-12T09:28:20.720Z,54.52
2022-09-12T09:29:19.865Z,53.52
2022-09-12T09:30:20.057Z,53.46
2022-09-12T09:31:20.161Z,53.84
2022-09-12T09:32:20.189Z,54.70
2022-09-12T09:33:20.333Z,55.78
2022-09-12T09:34:20.481Z,56.63
2022-09-12T09:35:20.790Z,52.54
2022-09-12T09:36:20.670Z,53.95
2022-09-12T09:37:20.811Z,54.83
2022-09-12T09:38:20.950Z,52.94
2022-09-12T09:39:21.061Z,54.69
2022-09-12T09:40:21.352Z,56.21
2022-09-12T09:41:21.439Z,52.34
2022-09-12T09:42:21.488Z,53.16
2022-09-12T09:43:21.719Z,56.32
2022-09-12T09:44:21.720Z,51.88
2022-09-12T09:45:21.937Z,50.58
2022-09-12T09:46:22.076Z,51.95
2022-09-12T09:47:22.046Z,51.47
2022-09-12T09:48:22.136Z,52.25
2022-09-12T09:49:22.279Z,51.76
2022-09-12T09:50:22.459Z,51.26
2022-09-12T09:51:22.508Z,51.83
2022-09-12T09:52:22.608Z,54.75
2022-09-12T09:53:22.703Z,52.41
2022-09-12T09:54:22.838Z,55.37
2022-09-12T09:55:23.036Z,55.74
2022-09-12T09:56:23.367Z,51.20
2022-09-12T09:57:23.246Z,52.09
2022-09-12T09:58:23.407Z,51.75
2022-09-12T09:59:23.686Z,54.20
2022-09-12T10:00:23.617Z,52.85
2022-09-12T10:01:23.771Z,52.15
2022-09-12T10:02:24.500Z,50.29
2022-09-12T10:03:24.125Z,50.57
2022-09-12T10:04:24.228Z,52.21
2022-09-12T10:05:24.277Z,49.80
2022-09-12T10:06:24.367Z,49.25
2022-09-12T10:07:24.610Z,49.83
2022-09-12T10:08:24.645Z,51.25
2022-09-12T10:09:24.738Z,53.11
2022-09-12T10:10:24.875Z,50.75
2022-09-12T10:11:25.007Z,51.32
2022-09-12T10:12:25.227Z,52.11
2022-09-12T10:13:25.303Z,51.61
2022-09-12T10:14:25.387Z,49.64
2022-09-12T10:15:25.547Z,50.07
2022-09-12T10:16:25.660Z,49.34
2022-09-12T10:17:26.093Z,48.77
2022-09-12T10:18:25.927Z,47.42
2022-09-12T10:19:26.069Z,46.98
2022-09-12T10:20:26.204Z,47.36
2022-09-12T10:21:26.353Z,48.44
2022-09-12T10:22:26.647Z,46.91
2022-09-12T10:23:26.753Z,47.73
2022-09-12T10:24:26.804Z,47.24
2022-09-12T10:25:26.898Z,48.81
2022-09-12T10:26:27.035Z,48.48
2022-09-12T10:27:27.247Z,49.74
2022-09-12T10:28:27.339Z,46.81
2022-09-12T10:29:27.554Z,46.63
2022-09-12T10:30:27.689Z,47.12
2022-09-12T10:31:27.684Z,46.90
2022-09-12T10:32:30.917Z,46.46
2022-09-12T10:33:27.946Z,47.52
2022-09-12T10:34:28.186Z,47.06
2022-09-12T10:35:28.173Z,46.65
2022-09-12T10:36:28.323Z,47.61
2022-09-12T10:37:28.464Z,49.37
2022-09-12T10:38:28.627Z,51.05
2022-09-12T10:39:28.794Z,48.98
2022-09-12T10:40:28.863Z,49.79
2022-09-12T10:41:28.977Z,47.59
2022-09-12T10:42:29.062Z,45.72
2022-09-12T10:43:29.282Z,45.70
2022-09-12T10:44:29.465Z,45.83
2022-09-12T10:45:29.465Z,46.39
2022-09-12T10:46:29.633Z,47.21
2022-09-12T10:47:29.692Z,46.87
2022-09-12T10:48:29.813Z,46.77
2022-09-12T10:49:30.269Z,47.64
2022-09-12T10:50:30.152Z,48.37
2022-09-12T10:51:30.152Z,45.84
2022-09-12T10:52:30.291Z,46.73
2022-09-12T10:53:34.346Z,48.67
2022-09-12T10:54:30.792Z,48.30
2022-09-12T10:55:30.692Z,48.84
2022-09-12T10:56:30.785Z,46.04
2022-09-12T10:57:30.879Z,47.44
2022-09-12T10:58:31.021Z,46.58
2022-09-12T10:59:31.294Z,47.01
2022-09-12T11:00:31.273Z,46.35
2022-09-12T11:01:31.454Z,51.18
2022-09-12T11:02:31.593Z,53.09
2022-09-12T11:03:31.910Z,48.68
2022-09-12T11:04:31.800Z,50.43
2022-09-12T11:05:31.950Z,48.55
2022-09-12T11:06:32.062Z,47.97
2022-09-12T11:07:32.160Z,45.39
2022-09-12T11:08:32.458Z,46.73
2022-09-12T11:09:32.438Z,47.85
2022-09-12T11:10:36.760Z,46.75
2022-09-12T11:11:33.690Z,43.93
2022-09-12T11:12:32.829Z,44.16
2022-09-12T11:13:33.030Z,49.97
2022-09-12T11:14:33.089Z,46.02
2022-09-12T11:15:33.212Z,49.68
2022-09-12T11:16:33.289Z,47.62
2022-09-12T11:17:33.377Z,49.15
2022-09-12T11:18:33.697Z,47.87
2022-09-12T11:19:33.764Z,46.79
2022-09-12T11:20:33.808Z,46.19
2022-09-12T11:21:33.909Z,46.06
2022-09-12T11:22:33.996Z,49.54
2022-09-12T11:23:34.349Z,46.74
2022-09-12T11:24:34.369Z,46.54
2022-09-12T11:25:34.408Z,48.79
2022-09-12T11:26:34.489Z,47.36
2022-09-12T11:27:34.637Z,46.80
2022-09-12T11:28:35.012Z,47.47
2022-09-12T11:29:34.937Z,50.20
2022-09-12T11:30:35.018Z,49.94
2022-09-12T11:31:35.108Z,47.51
2022-09-12T11:32:35.258Z,49.13
2022-09-12T11:33:39.643Z,47.82
2022-09-12T11:34:36.497Z,45.57
2022-09-12T11:35:35.630Z,46.61
2022-09-12T11:36:35.776Z,46.70
2022-09-12T11:37:35.867Z,46.88
2022-09-12T11:38:36.087Z,47.48
2022-09-12T11:39:36.298Z,45.96
2022-09-12T11:40:36.188Z,45.58
2022-09-12T11:41:36.278Z,47.48
2022-09-12T11:42:36.376Z,49.40
2022-09-12T11:43:36.639Z,45.88
2022-09-12T11:44:40.049Z,48.00
2022-09-12T11:45:36.738Z,46.33
2022-09-12T11:46:36.849Z,47.82
2022-09-12T11:47:36.967Z,47.52
2022-09-12T11:48:37.077Z,47.66
2022-09-12T11:49:37.301Z,47.39
2022-09-12T11:50:37.287Z,47.40
2022-09-12T11:51:37.557Z,46.33
2022-09-12T11:52:37.564Z,45.94
2022-09-12T11:53:37.647Z,45.96
2022-09-12T11:54:37.977Z,45.01
2022-09-12T11:55:38.126Z,47.07
2022-09-12T11:56:38.015Z,48.16
2022-09-12T11:57:38.118Z,46.25
2022-09-12T11:58:38.237Z,47.85
2022-09-12T11:59:38.428Z,46.71
2022-09-12T12:00:38.547Z,46.69
2022-09-12T12:01:42.954Z,45.29
2022-09-12T12:02:39.749Z,46.29
2022-09-12T12:03:38.918Z,44.60
2022-09-12T12:04:38.956Z,46.53
2022-09-12T12:05:39.076Z,47.33
2022-09-12T12:06:39.258Z,50.67
2022-09-12T12:07:44.652Z,45.15
2022-09-12T12:08:40.417Z,45.36
2022-09-12T12:09:39.561Z,44.71
2022-09-12T12:10:39.725Z,47.50
2022-09-12T12:11:39.784Z,45.93
2022-09-12T12:12:39.886Z,44.41
2022-09-12T12:13:40.026Z,45.22
2022-09-12T12:14:40.123Z,44.41
2022-09-12T12:15:40.312Z,45.17
2022-09-12T12:16:40.376Z,48.07
2022-09-12T12:17:40.433Z,46.20
2022-09-12T12:18:40.554Z,45.10
2022-09-12T12:19:40.616Z,44.84
2022-09-12T12:20:40.736Z,45.23
2022-09-12T12:21:40.882Z,45.07
2022-09-12T12:22:40.967Z,44.71
2022-09-12T12:23:41.105Z,46.19
2022-09-12T12:24:41.267Z,44.95
2022-09-12T12:25:41.367Z,48.08
2022-09-12T12:26:41.585Z,44.69
2022-09-12T12:27:41.575Z,43.25
2022-09-12T12:28:41.738Z,46.03
2022-09-12T12:29:44.178Z,44.38
2022-09-12T12:30:41.975Z,43.73
2022-09-12T12:31:42.135Z,43.30
2022-09-12T12:32:42.343Z,45.06
2022-09-12T12:33:42.354Z,43.32
2022-09-12T12:34:42.467Z,49.90
2022-09-12T12:35:42.585Z,49.68
2022-09-12T12:36:42.805Z,45.71
2022-09-12T12:37:42.804Z,42.54
2022-09-12T12:38:42.925Z,43.08
2022-09-12T12:39:43.057Z,43.50
2022-09-12T12:40:43.305Z,43.66
2022-09-12T12:41:43.243Z,43.98
2022-09-12T12:42:43.674Z,43.26
2022-09-12T12:43:43.543Z,42.15
2022-09-12T12:44:43.644Z,42.38
2022-09-12T12:45:43.855Z,49.40
2022-09-12T12:46:43.895Z,43.06
2022-09-12T12:47:43.944Z,43.48
2022-09-12T12:48:44.114Z,42.94
2022-09-12T12:49:44.224Z,47.08
2022-09-12T12:50:44.503Z,47.79
2022-09-12T12:51:44.434Z,40.84
2022-09-12T12:52:44.574Z,42.41
2022-09-12T12:53:45.015Z,48.50